Terminal Aerodrome Forecast
Issued by NWS Houston/Galveston TX

Current Version | Previous Version | Text Only | Print | Product List | Glossary On
Versions: 1 2 3 4 5 6 7 8 9 10 11 12 13 14 15 16 17 18 19 20 21 22 23 24 25 26 27 28 29 30 31 32 33 34 35 36 37 38 39 40 41 42 43 44 45 46 47 48 49 50
000
FTUS44 KHGX 230909
TAFHOU
TAFHOU
TAF AMD
KHOU 230909Z 2309/2406 10005KT P6SM SCT008 BKN020 BKN030
      TEMPO 2309/2312 BKN008
     FM231500 15008KT P6SM VCSH SCT015 BKN025
     FM231800 14011G19KT P6SM VCTS SCT025 BKN035CB
     FM240300 14007KT P6SM VCSH BKN015 BKN025=

USA.gov is the U.S. government's official web portal to all federal, state and local government web resources and services.